Terminal Aerodrome Forecast
Issued by NWS

Current Version | Previous Version | Graphics & Text | Print | Product List | Glossary On
Versions: 1 2 3 4 5 6 7 8 9 10 11 12 13 14 15 16
000
FTUS41 KPBZ 100500
TAFHLG
TAF
KHLG 100530Z 1006/1106 31005KT P6SM SCT250
     FM100700 00000KT 3SM BR FEW250
     FM100900 00000KT 3/4SM BR FEW250
     FM101430 01003KT P6SM SCT040=

USA.gov is the U.S. government's official web portal to all federal, state and local government web resources and services.